Time;durP1;ratioP1;P1;durP2;ratioP2;P2;SDS_P1;SDS_P2;PMS_P1;PMS_P2;Temp;Humidity;BMP_temperature;BMP_pressure;BME280_temperature;BME280_humidity;BME280_pressure;Samples;Min_cycle;Max_cycle;Signal;HPM_P1;HPM_P2
2023/01/14 00:00:06;;;;;;;7.47;1.80;;;6.30;99.90;;;;;;5129663;28;20039;-67
2023/01/14 00:02:33;;;;;;;4.95;1.45;;;6.40;99.90;;;;;;5129492;28;20394;-68
2023/01/14 00:04:59;;;;;;;5.25;0.80;;;6.50;99.90;;;;;;5131110;27;20031;-68
2023/01/14 00:07:24;;;;;;;2.67;1.15;;;6.50;99.90;;;;;;5130998;28;20054;-67
2023/01/14 00:09:50;;;;;;;8.90;0.88;;;6.60;99.90;;;;;;5129501;28;20597;-67
2023/01/14 00:12:18;;;;;;;3.78;1.30;;;6.50;99.90;;;;;;5129378;28;20043;-68
2023/01/14 00:14:44;;;;;;;6.55;0.90;;;6.60;99.90;;;;;;5129705;28;20494;-68
2023/01/14 00:17:09;;;;;;;9.60;1.13;;;6.60;99.90;;;;;;5130724;28;20042;-68
2023/01/14 00:19:36;;;;;;;3.83;0.63;;;6.60;99.90;;;;;;5130773;28;20486;-68
2023/01/14 00:22:02;;;;;;;2.13;0.70;;;6.70;99.90;;;;;;5130798;27;20119;-68
2023/01/14 00:24:28;;;;;;;4.93;1.30;;;6.70;99.90;;;;;;5129395;28;20074;-68
2023/01/14 00:26:55;;;;;;;4.57;0.85;;;6.70;99.90;;;;;;5146350;27;20035;-68
2023/01/14 00:29:27;;;;;;;3.75;1.15;;;6.70;99.90;;;;;;5146293;27;20058;-68
2023/01/14 00:31:56;;;;;;;7.35;1.67;;;6.70;99.90;;;;;;5130578;27;20118;-68
2023/01/14 00:34:24;;;;;;;6.32;0.93;;;6.70;99.90;;;;;;5130280;27;20047;-67
2023/01/14 00:36:50;;;;;;;7.72;0.88;;;6.70;99.90;;;;;;5128893;28;20059;-67
2023/01/14 00:39:16;;;;;;;6.38;1.30;;;6.70;99.90;;;;;;5130451;28;20056;-68
2023/01/14 00:41:42;;;;;;;6.97;1.08;;;6.60;99.90;;;;;;5130340;28;20039;-68
2023/01/14 00:44:08;;;;;;;6.35;1.20;;;6.60;99.90;;;;;;5130026;27;20039;-68
2023/01/14 00:46:36;;;;;;;14.35;1.38;;;7.00;99.90;;;;;;5111712;28;20118;-68
2023/01/14 00:49:04;;;;;;;2.78;0.90;;;6.50;99.90;;;;;;5118596;28;20506;-68
2023/01/14 00:51:30;;;;;;;3.58;1.17;;;6.50;99.90;;;;;;5116484;28;20043;-68
2023/01/14 00:53:56;;;;;;;7.55;1.10;;;6.50;99.90;;;;;;5116266;28;20049;-68
2023/01/14 00:56:23;;;;;;;6.75;1.33;;;6.50;99.90;;;;;;5116316;28;20039;-68
2023/01/14 00:58:49;;;;;;;7.25;1.10;;;6.50;99.90;;;;;;5114787;28;20379;-68
2023/01/14 01:01:16;;;;;;;4.20;0.80;;;6.50;99.90;;;;;;5114796;28;20043;-68
2023/01/14 01:03:47;;;;;;;5.50;0.80;;;6.50;99.90;;;;;;5116003;28;20084;-68
2023/01/14 01:06:14;;;;;;;5.35;1.00;;;6.50;99.90;;;;;;5115104;28;20040;-67
2023/01/14 01:08:41;;;;;;;2.55;0.98;;;6.40;99.90;;;;;;5116230;28;20044;-67
2023/01/14 01:11:07;;;;;;;3.03;1.17;;;6.40;99.90;;;;;;5114794;28;20058;-68
2023/01/14 01:13:34;;;;;;;7.40;0.95;;;6.40;99.90;;;;;;5115165;28;20555;-67
2023/01/14 01:16:03;;;;;;;4.15;1.27;;;6.40;99.90;;;;;;5114477;28;20180;-67
2023/01/14 01:18:29;;;;;;;2.50;1.23;;;6.30;99.90;;;;;;5115964;28;20084;-68
2023/01/14 01:21:07;;;;;;;5.03;1.33;;;6.30;99.90;;;;;;5115848;28;20514;-68
2023/01/14 01:23:34;;;;;;;3.55;0.80;;;6.30;99.90;;;;;;5114611;28;20044;-67
2023/01/14 01:26:02;;;;;;;7.80;0.80;;;6.20;99.90;;;;;;5114714;28;20095;-67
2023/01/14 01:28:27;;;;;;;13.32;1.50;;;6.30;99.90;;;;;;5115861;28;20024;-67
2023/01/14 01:30:53;;;;;;;4.97;0.82;;;6.30;99.90;;;;;;5114143;28;20046;-68
2023/01/14 01:33:19;;;;;;;4.90;1.02;;;6.20;99.90;;;;;;5115678;28;20028;-68
2023/01/14 01:35:44;;;;;;;6.95;0.88;;;6.20;99.90;;;;;;5114119;28;20118;-67
2023/01/14 01:38:10;;;;;;;10.85;1.63;;;6.20;99.90;;;;;;5113849;28;20410;-68
2023/01/14 01:40:35;;;;;;;7.30;1.15;;;6.20;99.90;;;;;;5115540;28;20042;-68
2023/01/14 01:43:01;;;;;;;3.20;0.77;;;6.80;99.90;;;;;;5131221;27;20043;-68
2023/01/14 01:45:45;;;;;;;6.50;1.17;;;6.30;99.90;;;;;;5115466;28;20036;-68
2023/01/14 01:48:32;;;;;;;9.68;1.20;;;6.30;99.90;;;;;;5115390;28;20126;-68
2023/01/14 01:51:04;;;;;;;5.90;0.93;;;6.30;99.90;;;;;;5115341;28;20127;-68
2023/01/14 01:53:31;;;;;;;2.05;0.77;;;6.30;99.90;;;;;;5115245;28;20042;-68
2023/01/14 01:55:57;;;;;;;7.68;1.10;;;6.30;99.90;;;;;;5115175;28;20410;-68
2023/01/14 01:58:26;;;;;;;3.05;1.33;;;6.30;99.90;;;;;;5113643;28;20394;-68
2023/01/14 02:00:52;;;;;;;6.68;0.77;;;6.30;99.90;;;;;;5114220;28;20483;-68
2023/01/14 02:03:35;;;;;;;4.97;1.13;;;6.30;99.90;;;;;;5113562;28;20036;-67
2023/01/14 02:06:00;;;;;;;8.10;1.10;;;6.30;99.90;;;;;;5113489;28;20031;-68
2023/01/14 02:08:26;;;;;;;6.40;1.48;;;6.40;99.90;;;;;;5114985;28;20518;-67
2023/01/14 02:11:30;;;;;;;2.65;0.80;;;6.40;99.90;;;;;;5113484;28;20039;-67
2023/01/14 02:14:43;;;;;;;4.85;1.10;;;6.40;99.90;;;;;;5113593;28;20043;-68
2023/01/14 02:17:32;;;;;;;2.42;1.02;;;6.40;99.90;;;;;;5035058;28;20044;-67
2023/01/14 02:20:26;;;;;;;1.98;0.77;;;6.40;99.90;;;;;;5109826;28;20055;-67
2023/01/14 02:23:25;;;;;;;7.63;1.00;;;6.40;99.90;;;;;;5113200;28;20144;-67
2023/01/14 02:26:02;;;;;;;13.35;1.48;;;6.40;99.90;;;;;;5113395;28;20035;-67
2023/01/14 02:28:58;;;;;;;4.85;1.02;;;6.40;99.90;;;;;;5113088;28;20082;-68
2023/01/14 02:31:41;;;;;;;4.93;1.10;;;6.50;99.90;;;;;;5130206;27;20050;-68
2023/01/14 02:34:33;;;;;;;5.18;1.05;;;6.50;99.90;;;;;;5112965;28;20079;-68
2023/01/14 02:37:18;;;;;;;6.78;1.08;;;6.50;99.90;;;;;;5114102;28;20101;-68
2023/01/14 02:39:47;;;;;;;6.88;1.50;;;6.50;99.90;;;;;;5114196;28;20048;-68
2023/01/14 02:45:19;;;;;;;4.13;0.88;;;6.50;99.90;;;;;;5113070;28;20083;-67
2023/01/14 02:47:47;;;;;;;7.03;1.33;;;6.50;99.90;;;;;;5114053;28;20051;-67
2023/01/14 02:50:14;;;;;;;9.15;2.20;;;6.50;99.90;;;;;;5114524;28;20039;-67
2023/01/14 02:52:40;;;;;;;5.97;1.23;;;6.50;99.90;;;;;;5114191;28;20062;-67
2023/01/14 02:55:31;;;;;;;6.15;1.38;;;6.50;99.90;;;;;;5113860;28;20474;-67
2023/01/14 02:58:08;;;;;;;;;;;6.50;99.90;;;;;;5114009;28;20075;-68
2023/01/14 03:01:08;;;;;;;9.35;1.60;;;6.40;99.90;;;;;;5114012;28;19916;-68
2023/01/14 03:04:01;;;;;;;12.30;1.50;;;6.40;99.90;;;;;;5081439;22;20061;-66
2023/01/14 03:06:42;;;;;;;9.70;1.35;;;6.40;99.90;;;;;;5015475;28;20060;-66
2023/01/14 03:09:49;;;;;;;5.10;1.10;;;6.30;99.90;;;;;;5015867;28;20045;-66
2023/01/14 03:12:21;;;;;;;3.97;1.30;;;6.20;99.90;;;;;;5032295;28;20041;-66
2023/01/14 03:14:57;;;;;;;11.32;1.52;;;6.20;99.90;;;;;;5033409;28;20507;-66
2023/01/14 03:18:08;;;;;;;3.33;0.52;;;6.20;99.90;;;;;;5015445;28;20051;-66
2023/01/14 03:20:38;;;;;;;1.42;0.82;;;6.10;99.90;;;;;;4972226;28;20604;-66
2023/01/14 03:23:06;;;;;;;6.00;1.23;;;6.10;99.90;;;;;;5008806;28;20412;-66
2023/01/14 03:25:35;;;;;;;8.25;1.35;;;6.10;99.90;;;;;;5015450;28;20124;-66
2023/01/14 03:28:03;;;;;;;6.60;1.45;;;6.40;99.90;;;;;;5033178;28;20045;-66
2023/01/14 03:30:35;;;;;;;3.40;1.02;;;6.00;99.90;;;;;;5033215;28;20081;-66
2023/01/14 03:33:08;;;;;;;6.28;0.60;;;6.00;99.90;;;;;;5033187;28;20045;-66
2023/01/14 03:35:38;;;;;;;1.38;0.63;;;5.90;99.90;;;;;;5015149;28;20048;-66
2023/01/14 03:38:18;;;;;;;5.05;1.02;;;5.90;99.90;;;;;;5015120;28;20091;-66
2023/01/14 03:40:47;;;;;;;2.42;0.95;;;5.90;99.90;;;;;;5033070;28;20488;-66
2023/01/14 03:43:18;;;;;;;5.18;1.63;;;5.90;99.90;;;;;;5015120;28;20084;-66
2023/01/14 03:45:45;;;;;;;1.83;0.82;;;5.90;99.90;;;;;;5033051;28;20041;-66
2023/01/14 03:48:11;;;;;;;5.32;1.35;;;5.80;99.90;;;;;;5032708;28;20057;-66
2023/01/14 03:50:53;;;;;;;2.88;1.08;;;5.80;99.90;;;;;;5032799;28;20087;-66
2023/01/14 03:53:40;;;;;;;4.45;0.95;;;5.80;99.90;;;;;;5014967;28;20080;-66
2023/01/14 03:56:28;;;;;;;4.70;1.17;;;5.80;99.90;;;;;;5032942;28;20030;-66
2023/01/14 03:59:02;;;;;;;6.25;1.23;;;5.70;99.90;;;;;;5032947;28;20078;-66
2023/01/14 04:01:38;;;;;;;9.40;1.30;;;5.70;99.90;;;;;;5032863;28;20399;-66
2023/01/14 04:04:05;;;;;;;6.55;1.13;;;5.70;99.90;;;;;;5032439;28;20051;-66
2023/01/14 04:06:30;;;;;;;12.23;1.73;;;5.70;99.90;;;;;;5015124;28;20057;-66
2023/01/14 04:08:56;;;;;;;8.95;1.10;;;5.70;99.90;;;;;;5032817;28;20048;-66
2023/01/14 04:11:22;;;;;;;5.50;1.00;;;5.70;99.90;;;;;;5015423;28;20492;-66
2023/01/14 04:16:31;;;;;;;6.13;1.30;;;5.70;99.90;;;;;;5032365;28;20057;-66
2023/01/14 04:18:57;;;;;;;5.45;1.27;;;5.80;99.90;;;;;;5032510;28;20164;-66
2023/01/14 04:21:23;;;;;;;6.25;1.70;;;5.80;99.90;;;;;;5032446;28;20041;-66
2023/01/14 04:23:48;;;;;;;3.75;0.80;;;5.80;99.90;;;;;;5034395;28;20049;-67
2023/01/14 04:26:14;;;;;;;3.95;1.13;;;5.70;99.90;;;;;;5036437;28;20396;-66
2023/01/14 04:28:39;;;;;;;5.30;1.40;;;5.70;99.90;;;;;;5018429;28;20076;-66
2023/01/14 04:31:05;;;;;;;6.97;0.55;;;5.70;99.90;;;;;;5018308;28;20052;-66
2023/01/14 04:33:30;;;;;;;2.40;1.25;;;5.80;99.90;;;;;;5036292;28;20599;-65
2023/01/14 04:35:56;;;;;;;5.32;1.15;;;5.70;99.90;;;;;;5018240;28;20068;-66
2023/01/14 04:38:22;;;;;;;10.45;1.27;;;5.70;99.90;;;;;;5018292;28;20377;-66
2023/01/14 04:40:49;;;;;;;2.80;0.73;;;5.70;99.90;;;;;;5036132;28;20037;-66
2023/01/14 04:43:15;;;;;;;4.95;0.80;;;5.70;99.90;;;;;;5018343;28;20041;-66
2023/01/14 04:45:41;;;;;;;3.55;0.90;;;5.80;99.90;;;;;;5036012;28;20045;-66
2023/01/14 04:48:07;;;;;;;7.38;1.10;;;5.70;99.90;;;;;;5018251;28;20467;-66
2023/01/14 04:50:34;;;;;;;3.85;1.00;;;5.70;99.90;;;;;;5018086;28;20041;-66
2023/01/14 04:53:13;;;;;;;5.95;1.40;;;5.70;99.90;;;;;;5035700;28;20095;-65
2023/01/14 04:55:40;;;;;;;3.55;0.90;;;5.70;99.90;;;;;;5018243;28;20438;-64
2023/01/14 04:58:08;;;;;;;5.00;1.30;;;5.70;99.90;;;;;;5017839;28;20543;-66
2023/01/14 05:00:34;;;;;;;7.53;0.98;;;5.70;99.90;;;;;;5035827;28;20063;-66
2023/01/14 05:03:05;;;;;;;2.63;0.80;;;5.60;99.90;;;;;;5035385;28;20041;-65
2023/01/14 05:05:31;;;;;;;9.77;1.15;;;5.60;99.90;;;;;;5017856;28;20132;-66
2023/01/14 05:07:57;;;;;;;5.53;0.77;;;5.60;99.90;;;;;;5017744;28;20099;-66
2023/01/14 05:10:23;;;;;;;5.25;1.20;;;5.60;99.90;;;;;;5017628;28;20049;-66
2023/01/14 05:12:57;;;;;;;7.50;1.98;;;5.60;99.90;;;;;;5035296;28;20091;-66
2023/01/14 05:15:24;;;;;;;3.70;1.50;;;5.60;99.90;;;;;;5017494;28;20049;-65
2023/01/14 05:17:50;;;;;;;6.80;0.88;;;5.60;99.90;;;;;;5017444;28;20041;-66
2023/01/14 05:20:16;;;;;;;2.05;0.93;;;5.60;99.90;;;;;;5035452;28;20041;-66
2023/01/14 05:22:42;;;;;;;3.95;1.48;;;5.60;99.90;;;;;;5017347;28;20045;-66
2023/01/14 05:25:08;;;;;;;6.50;1.20;;;5.60;99.90;;;;;;5017620;28;20476;-65
2023/01/14 05:27:34;;;;;;;4.60;0.82;;;5.60;99.90;;;;;;5017324;28;20052;-66
2023/01/14 05:30:00;;;;;;;3.35;1.08;;;5.60;99.90;;;;;;5017236;28;20045;-66
2023/01/14 05:32:25;;;;;;;7.78;0.93;;;5.70;99.90;;;;;;5035266;28;20041;-66
2023/01/14 05:34:51;;;;;;;5.22;0.82;;;5.60;99.90;;;;;;5017074;28;20038;-66
2023/01/14 05:37:17;;;;;;;6.07;1.00;;;5.70;99.90;;;;;;5017066;28;20037;-66
2023/01/14 05:39:43;;;;;;;4.35;1.27;;;5.70;99.90;;;;;;5017066;28;20050;-66
2023/01/14 05:47:38;;;;;;;10.15;1.58;;;5.60;99.90;;;;;;5035012;28;20073;-65
2023/01/14 05:50:04;;;;;;;8.05;1.77;;;5.60;99.90;;;;;;5016860;28;20134;-66
2023/01/14 05:52:30;;;;;;;4.20;2.45;;;5.60;99.90;;;;;;5034570;28;20030;-66
2023/01/14 05:54:55;;;;;;;1.80;1.00;;;5.60;99.90;;;;;;5000459;28;20045;-65
2023/01/14 05:57:21;;;;;;;6.22;1.20;;;5.70;99.90;;;;;;5016993;28;20048;-65
2023/01/14 05:59:46;;;;;;;7.22;1.30;;;5.60;99.90;;;;;;5034752;28;20042;-65
2023/01/14 06:07:40;;;;;;;7.82;2.17;;;5.60;99.90;;;;;;5016478;28;20148;-66
2023/01/14 06:10:06;;;;;;;5.43;2.03;;;5.60;99.90;;;;;;5000193;28;20132;-65
2023/01/14 06:13:17;;;;;;;9.30;1.65;;;5.70;99.90;;;;;;5016478;28;20049;-65
2023/01/14 06:15:17;;;;;;;4.03;1.15;;;5.70;99.90;;;;;;5026657;28;20504;-65
2023/01/14 06:17:46;;;;;;;5.18;2.42;;;5.70;99.90;;;;;;5034288;28;20038;-65
2023/01/14 06:20:12;;;;;;;6.35;1.75;;;5.70;99.90;;;;;;5016396;28;20050;-65
2023/01/14 06:22:38;;;;;;;11.38;1.95;;;5.70;99.90;;;;;;5016502;28;20041;-65
2023/01/14 06:25:04;;;;;;;5.90;2.22;;;5.60;99.90;;;;;;5000162;28;20392;-65
2023/01/14 06:27:30;;;;;;;20.77;2.55;;;5.60;99.90;;;;;;5033874;28;20045;-66
2023/01/14 06:29:55;;;;;;;6.50;2.25;;;5.60;99.90;;;;;;5034119;28;20034;-65
2023/01/14 06:32:21;;;;;;;4.95;1.55;;;5.50;99.90;;;;;;5016354;28;20112;-65
2023/01/14 06:34:46;;;;;;;14.73;2.55;;;5.50;99.90;;;;;;5033831;28;20056;-65
2023/01/14 06:37:12;;;;;;;11.13;1.60;;;5.60;99.90;;;;;;5033606;28;20056;-65
2023/01/14 06:39:37;;;;;;;6.60;2.25;;;5.60;99.90;;;;;;5016282;28;20551;-65
2023/01/14 06:42:04;;;;;;;5.97;2.30;;;5.60;99.90;;;;;;5033877;28;20045;-65
2023/01/14 06:44:29;;;;;;;5.70;2.25;;;5.60;99.90;;;;;;5015943;28;20037;-65
2023/01/14 06:46:55;;;;;;;10.10;1.98;;;5.50;99.90;;;;;;5033296;28;20503;-65
2023/01/14 06:49:20;;;;;;;8.02;2.60;;;5.50;99.90;;;;;;5016137;28;20049;-66
2023/01/14 06:51:46;;;;;;;8.18;2.38;;;5.60;99.90;;;;;;5033745;28;20045;-65
2023/01/14 06:54:13;;;;;;;7.43;2.63;;;5.50;99.90;;;;;;5033704;28;20499;-65
2023/01/14 06:56:38;;;;;;;7.22;1.70;;;5.50;99.90;;;;;;5033301;28;20041;-65
2023/01/14 06:59:04;;;;;;;5.85;1.58;;;5.50;99.90;;;;;;5033633;28;20040;-65
2023/01/14 07:01:30;;;;;;;12.73;3.47;;;5.60;99.90;;;;;;5033573;28;20041;-65
2023/01/14 07:03:55;;;;;;;8.43;2.58;;;5.60;99.90;;;;;;5033210;28;20484;-64
2023/01/14 07:06:21;;;;;;;10.63;1.60;;;5.60;99.90;;;;;;5015500;28;20047;-64
2023/01/14 07:08:46;;;;;;;8.90;1.92;;;5.60;99.90;;;;;;5015548;28;20048;-63
2023/01/14 07:11:12;;;;;;;10.93;2.20;;;5.60;99.90;;;;;;5033388;28;20685;-63
2023/01/14 07:13:38;;;;;;;6.80;2.15;;;5.60;99.90;;;;;;5033431;28;20037;-64
2023/01/14 07:16:04;;;;;;;4.80;1.58;;;5.60;99.90;;;;;;5033283;28;20065;-61
2023/01/14 07:18:29;;;;;;;15.10;2.65;;;5.60;99.90;;;;;;5033309;28;20041;-61
2023/01/14 07:20:59;;;;;;;4.28;1.70;;;5.60;99.90;;;;;;5033302;28;20091;-63
2023/01/14 07:23:26;;;;;;;3.22;1.50;;;5.60;99.90;;;;;;5015609;28;20051;-63
2023/01/14 07:25:55;;;;;;;7.80;2.47;;;5.60;99.90;;;;;;5033126;28;20435;-65
2023/01/14 07:28:26;;;;;;;9.30;2.58;;;5.60;99.90;;;;;;5033186;28;20110;-63
2023/01/14 07:30:52;;;;;;;16.35;1.80;;;5.70;99.90;;;;;;5015578;28;20050;-64
2023/01/14 07:33:18;;;;;;;5.57;1.92;;;5.70;99.90;;;;;;5033155;28;20054;-66
2023/01/14 07:35:44;;;;;;;7.60;1.63;;;5.70;99.90;;;;;;5015179;28;20055;-64
2023/01/14 07:38:10;;;;;;;3.58;1.95;;;5.70;99.90;;;;;;5032751;28;20037;-64
2023/01/14 07:40:37;;;;;;;9.18;1.85;;;5.80;99.90;;;;;;5032770;28;20073;-64
2023/01/14 07:43:03;;;;;;;9.60;2.50;;;5.70;99.90;;;;;;5033089;28;20507;-63
2023/01/14 07:45:29;;;;;;;11.35;2.28;;;5.80;99.90;;;;;;5033014;28;20041;-65
2023/01/14 07:47:56;;;;;;;11.68;2.65;;;5.80;99.90;;;;;;5015072;28;20523;-64
2023/01/14 07:50:22;;;;;;;8.65;1.52;;;5.80;99.90;;;;;;5015046;28;20137;-64
2023/01/14 07:52:52;;;;;;;5.13;1.80;;;5.80;99.90;;;;;;5032886;28;20499;-64
2023/01/14 07:55:18;;;;;;;6.57;1.40;;;6.80;99.90;;;;;;5033035;28;20547;-64
2023/01/14 07:57:44;;;;;;;5.53;2.58;;;5.90;99.90;;;;;;5032903;28;20033;-63
2023/01/14 08:00:10;;;;;;;9.18;2.38;;;5.90;99.90;;;;;;5018912;28;20452;-63
2023/01/14 08:02:36;;;;;;;8.95;1.70;;;5.90;99.90;;;;;;5018952;28;20049;-63
2023/01/14 08:05:02;;;;;;;2.67;2.03;;;5.90;99.90;;;;;;5036468;28;20041;-62
2023/01/14 08:07:28;;;;;;;8.43;1.80;;;6.00;99.90;;;;;;5002374;28;20096;-63
2023/01/14 08:09:54;;;;;;;6.18;1.45;;;6.00;99.90;;;;;;5036411;28;20037;-63
2023/01/14 08:12:19;;;;;;;7.65;1.45;;;6.00;99.90;;;;;;5036436;28;20037;-64
2023/01/14 08:14:45;;;;;;;6.93;1.65;;;6.00;99.90;;;;;;5018656;28;20396;-64
2023/01/14 08:17:11;;;;;;;8.13;2.75;;;6.00;99.90;;;;;;5036457;28;20090;-65
2023/01/14 08:19:36;;;;;;;3.67;1.27;;;6.00;99.90;;;;;;5018978;28;20052;-65
2023/01/14 08:22:02;;;;;;;4.82;1.58;;;6.00;99.90;;;;;;5036374;28;20037;-65
2023/01/14 08:24:27;;;;;;;13.63;2.10;;;6.00;99.90;;;;;;5018364;28;20033;-66
2023/01/14 08:26:53;;;;;;;13.35;2.40;;;6.00;99.90;;;;;;5018479;28;20048;-65
2023/01/14 08:29:19;;;;;;;9.35;1.90;;;6.00;99.90;;;;;;5036479;28;20127;-66
2023/01/14 08:31:48;;;;;;;6.93;1.17;;;6.10;99.90;;;;;;5036382;28;20048;-64
2023/01/14 08:34:13;;;;;;;5.05;1.13;;;6.10;99.90;;;;;;5036298;28;20476;-65
2023/01/14 08:36:40;;;;;;;6.95;1.55;;;6.10;99.90;;;;;;5036175;28;20091;-65
2023/01/14 08:39:05;;;;;;;6.57;1.35;;;6.10;99.90;;;;;;5036291;28;20129;-65
2023/01/14 08:41:31;;;;;;;3.53;1.17;;;6.10;99.90;;;;;;5036127;28;20125;-66
2023/01/14 08:43:56;;;;;;;3.35;1.45;;;6.10;99.90;;;;;;5035846;28;20040;-65
2023/01/14 08:46:22;;;;;;;2.80;1.40;;;6.00;99.90;;;;;;5036089;28;20038;-65
2023/01/14 08:48:48;;;;;;;5.20;1.30;;;6.00;99.90;;;;;;5018098;28;20121;-66
2023/01/14 08:51:13;;;;;;;3.40;1.35;;;6.00;99.90;;;;;;5035672;28;20045;-66
2023/01/14 08:53:40;;;;;;;5.95;1.27;;;6.00;99.90;;;;;;5017963;28;20045;-66
2023/01/14 08:56:07;;;;;;;4.50;1.52;;;6.00;99.90;;;;;;5035971;28;20034;-66
2023/01/14 08:58:36;;;;;;;6.05;1.70;;;6.00;99.90;;;;;;5035580;28;20049;-67
2023/01/14 09:01:06;;;;;;;4.93;0.90;;;6.00;99.90;;;;;;5017819;28;20048;-66
2023/01/14 09:03:33;;;;;;;3.53;0.82;;;6.00;99.90;;;;;;5035335;28;20120;-66
2023/01/14 09:06:08;;;;;;;13.05;1.70;;;6.10;99.90;;;;;;5035817;28;20084;-64
2023/01/14 09:19:26;;;;;;;8.88;1.40;;;6.10;99.90;;;;;;5035264;28;20053;-66
2023/01/14 09:21:52;;;;;;;6.72;1.50;;;6.00;99.90;;;;;;5035505;28;20047;-63
2023/01/14 09:24:18;;;;;;;1.50;1.00;;;6.00;99.90;;;;;;5035414;28;20029;-64
2023/01/14 09:26:43;;;;;;;3.50;1.13;;;6.00;99.90;;;;;;5017367;28;20119;-64
2023/01/14 09:29:09;;;;;;;5.55;1.05;;;6.00;99.90;;;;;;5035234;28;20049;-65
2023/01/14 09:31:35;;;;;;;7.85;1.08;;;6.00;99.90;;;;;;5017260;28;20404;-65
2023/01/14 09:34:00;;;;;;;14.60;1.75;;;6.00;99.90;;;;;;5035213;28;20125;-66
2023/01/14 09:36:26;;;;;;;4.28;1.30;;;6.00;99.90;;;;;;5035035;28;20047;-64
2023/01/14 09:38:52;;;;;;;6.38;0.75;;;6.10;99.90;;;;;;5035189;28;20042;-63
2023/01/14 09:41:30;;;;;;;4.00;1.38;;;6.00;99.90;;;;;;5035118;28;20060;-65
2023/01/14 09:43:56;;;;;;;10.00;1.45;;;6.10;99.90;;;;;;5035036;28;20048;-65
2023/01/14 09:46:25;;;;;;;3.60;1.15;;;6.00;99.90;;;;;;5000829;28;20048;-64
2023/01/14 09:48:55;;;;;;;7.88;1.48;;;6.10;99.90;;;;;;5034734;28;20519;-63
2023/01/14 09:51:51;;;;;;;3.28;1.10;;;6.10;99.90;;;;;;5034838;28;20041;-64
2023/01/14 09:54:29;;;;;;;6.32;1.40;;;6.10;99.90;;;;;;5034763;28;20057;-63
2023/01/14 09:57:08;;;;;;;5.95;1.00;;;6.20;99.90;;;;;;5016671;28;20042;-64
2023/01/14 09:59:34;;;;;;;5.57;1.23;;;6.20;99.90;;;;;;5034725;28;20038;-64
2023/01/14 10:02:20;;;;;;;6.43;0.85;;;6.20;99.90;;;;;;5034640;28;20112;-65
2023/01/14 10:04:48;;;;;;;1.13;0.95;;;6.20;99.90;;;;;;5034168;28;20056;-64
2023/01/14 10:07:16;;;;;;;9.05;1.30;;;6.20;99.90;;;;;;5034378;28;20045;-64
2023/01/14 10:09:57;;;;;;;1.35;0.68;;;6.20;99.90;;;;;;5034451;28;20438;-64
2023/01/14 10:12:37;;;;;;;1.70;0.63;;;6.30;99.90;;;;;;5034108;28;20077;-64
2023/01/14 10:15:17;;;;;;;2.35;1.13;;;6.30;99.90;;;;;;5034085;28;20053;-64
2023/01/14 10:17:48;;;;;;;0.98;0.57;;;6.30;99.90;;;;;;5016321;28;20077;-65
2023/01/14 10:20:19;;;;;;;9.02;1.05;;;6.30;99.90;;;;;;5034049;28;20064;-65
2023/01/14 10:22:56;;;;;;;2.13;1.13;;;6.40;99.90;;;;;;5033485;28;20045;-64
2023/01/14 10:25:22;;;;;;;4.95;0.75;;;6.40;99.90;;;;;;5034141;28;20033;-64
2023/01/14 10:27:54;;;;;;;1.83;0.77;;;6.40;99.90;;;;;;5000188;28;20045;-64
2023/01/14 10:30:29;;;;;;;1.00;0.57;;;6.40;99.90;;;;;;5034192;28;20098;-64
2023/01/14 10:32:57;;;;;;;2.28;0.60;;;6.40;99.90;;;;;;5033844;28;20033;-64
2023/01/14 10:35:33;;;;;;;4.28;1.17;;;6.40;99.90;;;;;;5034104;28;20049;-63
2023/01/14 10:37:59;;;;;;;5.60;1.20;;;6.50;99.90;;;;;;5034014;28;20535;-64
2023/01/14 10:40:26;;;;;;;1.17;0.70;;;6.50;99.90;;;;;;5015957;28;20420;-64
2023/01/14 10:42:53;;;;;;;0.50;0.47;;;6.50;99.90;;;;;;5033678;28;20041;-64
2023/01/14 10:45:19;;;;;;;1.58;0.52;;;6.60;99.90;;;;;;5033534;28;20041;-64
2023/01/14 10:47:46;;;;;;;3.08;0.95;;;6.60;99.90;;;;;;5033745;28;20045;-64
2023/01/14 10:50:16;;;;;;;2.75;0.68;;;6.60;99.90;;;;;;5015703;28;20160;-64
2023/01/14 10:52:43;;;;;;;1.23;0.80;;;6.60;99.90;;;;;;5033714;28;20077;-64
2023/01/14 10:55:11;;;;;;;1.52;0.60;;;6.70;99.90;;;;;;5033678;28;20041;-63
2023/01/14 10:57:50;;;;;;;5.57;1.10;;;7.30;99.90;;;;;;5033573;28;20048;-64
2023/01/14 11:00:31;;;;;;;1.70;0.65;;;6.70;99.90;;;;;;5015949;28;20053;-65
2023/01/14 11:02:57;;;;;;;1.77;0.75;;;6.80;99.90;;;;;;5033388;28;20049;-64
2023/01/14 11:05:38;;;;;;;3.25;1.70;;;6.80;99.90;;;;;;5015797;28;20041;-64
2023/01/14 11:08:47;;;;;;;4.05;0.70;;;6.80;99.90;;;;;;5015488;28;20045;-64
2023/01/14 11:11:17;;;;;;;2.42;1.13;;;6.90;99.90;;;;;;4956098;28;20074;-64
2023/01/14 11:13:45;;;;;;;1.35;0.88;;;6.90;99.90;;;;;;4972403;28;20047;-64
2023/01/14 11:16:24;;;;;;;1.13;0.63;;;7.00;99.90;;;;;;5005435;28;20140;-64
2023/01/14 11:18:53;;;;;;;1.88;1.17;;;7.10;99.90;;;;;;5033161;28;20168;-63
2023/01/14 11:21:23;;;;;;;3.35;1.10;;;7.10;99.90;;;;;;5015768;28;20060;-64
2023/01/14 11:24:00;;;;;;;1.15;0.68;;;7.00;99.90;;;;;;5033293;28;20037;-63
2023/01/14 11:26:29;;;;;;;2.33;0.80;;;7.10;99.90;;;;;;5033202;28;20025;-64
2023/01/14 11:29:35;;;;;;;3.20;0.80;;;7.10;99.90;;;;;;5033137;28;20043;-64
2023/01/14 11:32:10;;;;;;;2.33;0.50;;;7.10;99.90;;;;;;4971862;28;20526;-64
2023/01/14 11:34:39;;;;;;;1.52;0.65;;;7.10;99.90;;;;;;4972032;28;20061;-64
2023/01/14 11:37:16;;;;;;;4.25;0.57;;;7.10;99.90;;;;;;5006159;28;20102;-63
2023/01/14 11:39:55;;;;;;;3.13;0.55;;;7.00;99.90;;;;;;5015380;28;20131;-63
2023/01/14 11:42:20;;;;;;;5.10;0.63;;;7.10;99.90;;;;;;5033110;28;20048;-63
2023/01/14 11:45:18;;;;;;;0.82;0.57;;;7.10;99.90;;;;;;5015419;28;20053;-64
2023/01/14 11:47:50;;;;;;;0.85;0.45;;;7.00;99.90;;;;;;5024679;28;20083;-64
2023/01/14 11:50:42;;;;;;;2.40;0.70;;;7.10;99.90;;;;;;5032966;28;20515;-64
2023/01/14 11:53:18;;;;;;;1.60;0.50;;;7.10;99.90;;;;;;5029413;28;20504;-63
2023/01/14 11:55:47;;;;;;;1.05;0.65;;;7.10;99.90;;;;;;5032827;28;20042;-63
2023/01/14 11:58:25;;;;;;;0.90;0.50;;;7.20;99.90;;;;;;5032736;28;20112;-64
2023/01/14 12:00:59;;;;;;;1.13;0.55;;;7.10;99.90;;;;;;5032773;28;20045;-63
2023/01/14 12:04:00;;;;;;;1.58;0.77;;;7.10;99.90;;;;;;5014502;28;20107;-63
2023/01/14 12:07:23;;;;;;;6.05;0.70;;;7.30;99.90;;;;;;5013170;28;20492;-64
2023/01/14 12:10:01;;;;;;;1.30;0.52;;;7.20;99.90;;;;;;4955423;28;20121;-63
2023/01/14 12:18:52;;;;;;;2.53;0.50;;;7.40;99.90;;;;;;5032263;28;20050;-63
2023/01/14 12:21:25;;;;;;;2.00;0.57;;;7.30;99.90;;;;;;5031781;28;20054;-63
2023/01/14 12:23:57;;;;;;;0.15;0.10;;;7.30;99.90;;;;;;5032633;28;20041;-63
2023/01/14 12:26:29;;;;;;;0.20;0.20;;;7.30;99.90;;;;;;5032595;28;20121;-63
2023/01/14 12:29:00;;;;;;;0.47;0.45;;;7.30;99.90;;;;;;5032621;28;20412;-63
2023/01/14 12:31:41;;;;;;;0.70;0.45;;;7.30;99.90;;;;;;5032574;28;20599;-63
2023/01/14 12:34:28;;;;;;;0.45;0.15;;;7.30;99.90;;;;;;5014808;28;20041;-63
2023/01/14 12:37:00;;;;;;;0.57;0.30;;;7.60;99.90;;;;;;5032366;28;20045;-62
2023/01/14 12:45:41;;;;;;;0.90;0.20;;;7.60;99.90;;;;;;5034767;28;20041;-63
2023/01/14 12:48:07;;;;;;;1.13;0.63;;;7.60;99.90;;;;;;5010430;28;20489;-63
2023/01/14 12:50:34;;;;;;;1.08;0.82;;;7.50;99.90;;;;;;5018255;28;20037;-62
2023/01/14 12:53:00;;;;;;;1.77;0.60;;;7.70;99.90;;;;;;5035857;28;20041;-63
2023/01/14 12:55:30;;;;;;;2.08;0.50;;;7.70;99.90;;;;;;5035831;28;20524;-63
2023/01/14 12:57:58;;;;;;;0.28;0.28;;;7.70;99.90;;;;;;5035839;28;20112;-62
2023/01/14 13:00:27;;;;;;;2.55;0.60;;;7.80;99.90;;;;;;5035744;28;20045;-63
2023/01/14 13:02:54;;;;;;;1.23;0.73;;;7.70;99.90;;;;;;5035378;28;20065;-62
2023/01/14 13:05:36;;;;;;;1.00;0.50;;;7.90;99.90;;;;;;5017809;28;20061;-63
2023/01/14 13:08:04;;;;;;;1.27;0.73;;;7.90;99.90;;;;;;5035523;28;20045;-63
2023/01/14 13:10:33;;;;;;;1.25;0.80;;;7.90;99.90;;;;;;5017689;28;20099;-64
2023/01/14 13:13:00;;;;;;;0.38;0.30;;;8.00;99.90;;;;;;5017815;28;20515;-62
2023/01/14 13:15:31;;;;;;;0.43;0.30;;;7.90;99.90;;;;;;5035568;28;20037;-62
2023/01/14 13:18:03;;;;;;;0.40;0.40;;;7.90;99.90;;;;;;5017628;28;20052;-63
2023/01/14 13:20:28;;;;;;;0.55;0.50;;;7.90;99.90;;;;;;5017501;28;20096;-63
2023/01/14 13:22:54;;;;;;;1.33;0.50;;;9.20;99.90;;;;;;5035459;28;20037;-63
2023/01/14 13:25:39;;;;;;;0.47;0.40;;;8.00;99.90;;;;;;5035063;28;20073;-62
2023/01/14 13:28:11;;;;;;;0.47;0.30;;;8.00;99.90;;;;;;5035368;28;20400;-62
2023/01/14 13:30:47;;;;;;;0.25;0.25;;;8.10;99.90;;;;;;5017285;28;20056;-62
2023/01/14 13:33:32;;;;;;;0.15;0.15;;;8.10;99.90;;;;;;5035231;28;20556;-62
2023/01/14 13:36:09;;;;;;;0.73;0.35;;;8.10;99.90;;;;;;5035272;28;20493;-62
2023/01/14 13:38:39;;;;;;;1.10;0.50;;;8.50;99.90;;;;;;5034845;28;20037;-62
2023/01/14 13:41:09;;;;;;;0.73;0.52;;;8.20;99.90;;;;;;5017075;28;20076;-62
2023/01/14 13:43:49;;;;;;;0.30;0.30;;;8.20;99.90;;;;;;5035113;28;20037;-62
2023/01/14 13:46:37;;;;;;;0.20;0.20;;;8.30;99.90;;;;;;5016898;28;20037;-63
2023/01/14 13:49:07;;;;;;;1.05;0.60;;;8.30;99.90;;;;;;5034005;28;20053;-62
2023/01/14 13:51:47;;;;;;;0.10;0.10;;;8.50;99.90;;;;;;5034909;28;20048;-62
2023/01/14 13:54:25;;;;;;;0.30;0.30;;;8.50;99.90;;;;;;5000415;28;20408;-62